createdAt,value
2018-07-27T00:01:47.698Z,22.39
2018-07-27T00:04:17.460Z,22.39
2018-07-27T00:06:48.198Z,22.39
2018-07-27T00:09:17.630Z,22.37
2018-07-27T00:11:47.554Z,22.30
2018-07-27T00:14:16.969Z,22.23
2018-07-27T00:16:46.988Z,22.19
2018-07-27T00:19:18.146Z,22.15
2018-07-27T00:21:47.484Z,22.11
2018-07-27T00:24:16.944Z,22.21
2018-07-27T00:26:47.810Z,22.10
2018-07-27T00:29:17.811Z,22.01
2018-07-27T00:31:47.196Z,21.95
2018-07-27T00:34:16.557Z,21.97
2018-07-27T00:36:45.978Z,21.91
2018-07-27T00:39:15.942Z,21.85
2018-07-27T00:41:45.321Z,21.86
2018-07-27T00:44:15.613Z,21.76
2018-07-27T00:46:46.806Z,21.77
2018-07-27T00:49:17.613Z,21.70
2018-07-27T00:51:47.452Z,21.76
2018-07-27T00:54:19.258Z,21.83
2018-07-27T00:56:48.617Z,21.67
2018-07-27T00:59:18.134Z,21.65
2018-07-27T01:01:47.478Z,21.79
2018-07-27T01:04:18.091Z,21.76
2018-07-27T01:06:49.068Z,21.80
2018-07-27T01:09:18.446Z,21.81
2018-07-27T01:11:48.941Z,21.71
2018-07-27T01:14:18.331Z,21.81
2018-07-27T01:16:47.721Z,21.78
2018-07-27T01:19:17.153Z,21.70
2018-07-27T01:21:46.553Z,21.59
2018-07-27T01:24:17.148Z,21.56
2018-07-27T01:26:47.097Z,21.59
2018-07-27T01:29:18.433Z,21.57
2018-07-27T01:31:47.981Z,21.49
2018-07-27T01:34:17.484Z,21.43
2018-07-27T01:36:47.297Z,21.32
2018-07-27T01:39:18.404Z,21.30
2018-07-27T01:41:47.850Z,21.28
2018-07-27T01:44:16.932Z,21.24
2018-07-27T01:46:46.312Z,21.21
2018-07-27T01:49:16.106Z,21.31
2018-07-27T01:51:45.785Z,21.14
2018-07-27T01:54:16.142Z,21.16
2018-07-27T01:56:46.430Z,21.05
2018-07-27T01:59:16.374Z,21.15
2018-07-27T02:01:45.822Z,21.02
2018-07-27T02:04:15.205Z,20.95
2018-07-27T02:06:44.607Z,20.85
2018-07-27T02:09:14.157Z,20.86
2018-07-27T02:11:44.064Z,20.98
2018-07-27T02:14:13.465Z,20.81
2018-07-27T02:16:42.820Z,20.68
2018-07-27T02:19:12.256Z,20.66
2018-07-27T02:21:41.673Z,20.64
2018-07-27T02:24:11.068Z,20.63
2018-07-27T02:26:40.454Z,20.65
2018-07-27T02:29:09.870Z,20.62
2018-07-27T02:31:39.258Z,20.59
2018-07-27T02:34:08.694Z,20.59
2018-07-27T02:36:38.060Z,20.62
2018-07-27T02:39:10.266Z,20.62
2018-07-27T02:41:39.726Z,20.61
2018-07-27T02:44:09.750Z,20.58
2018-07-27T02:46:39.277Z,20.40
2018-07-27T02:49:08.601Z,20.45
2018-07-27T02:51:38.103Z,20.49
2018-07-27T02:54:07.722Z,20.25
2018-07-27T02:56:37.194Z,20.14
2018-07-27T02:59:06.600Z,20.09
2018-07-27T03:01:36.143Z,20.23
2018-07-27T03:04:05.624Z,20.17
2018-07-27T03:06:34.950Z,20.18
2018-07-27T03:09:05.794Z,20.09
2018-07-27T03:11:35.257Z,20.12
2018-07-27T03:14:04.859Z,20.03
2018-07-27T03:16:33.987Z,20.10
2018-07-27T03:19:03.381Z,19.97
2018-07-27T03:21:32.754Z,20.03
2018-07-27T03:24:02.238Z,20.22
2018-07-27T03:26:31.713Z,20.15
2018-07-27T03:29:01.331Z,20.12
2018-07-27T03:31:30.698Z,19.98
2018-07-27T03:34:00.019Z,19.99
2018-07-27T03:36:29.658Z,19.88
2018-07-27T03:38:59.122Z,19.92
2018-07-27T03:41:28.497Z,20.08
2018-07-27T03:43:58.359Z,20.04
2018-07-27T03:46:27.733Z,20.09
2018-07-27T03:48:57.140Z,20.12
2018-07-27T03:51:26.491Z,19.98
2018-07-27T03:53:55.953Z,19.92
2018-07-27T03:56:25.342Z,19.97
2018-07-27T03:58:54.849Z,19.96
2018-07-27T04:01:24.316Z,19.88
2018-07-27T04:03:53.680Z,20.05
2018-07-27T04:06:23.064Z,20.08
2018-07-27T04:08:52.479Z,20.12
2018-07-27T04:11:21.858Z,20.19
2018-07-27T04:13:51.638Z,20.14
2018-07-27T04:16:21.090Z,20.09
2018-07-27T04:18:50.502Z,20.03
2018-07-27T04:21:19.870Z,20.13
2018-07-27T04:23:49.318Z,19.96
2018-07-27T04:26:18.768Z,20.00
2018-07-27T04:28:48.218Z,20.06
2018-07-27T04:31:17.569Z,20.19
2018-07-27T04:33:47.048Z,20.26
2018-07-27T04:36:16.405Z,20.24
2018-07-27T04:38:45.830Z,20.32
2018-07-27T04:41:15.409Z,20.47
2018-07-27T04:43:44.838Z,20.67
2018-07-27T04:46:14.413Z,20.73
2018-07-27T04:48:44.117Z,20.83
2018-07-27T04:51:13.510Z,20.79
2018-07-27T04:53:42.884Z,20.78
2018-07-27T04:56:12.282Z,20.81
2018-07-27T04:58:41.626Z,20.93
2018-07-27T05:01:10.992Z,20.90
2018-07-27T05:03:40.382Z,20.91
2018-07-27T05:06:09.799Z,20.97
2018-07-27T05:08:44.329Z,20.91
2018-07-27T05:11:13.727Z,20.97
2018-07-27T05:13:43.098Z,21.02
2018-07-27T05:16:12.450Z,21.28
2018-07-27T05:18:41.802Z,21.13
2018-07-27T05:21:11.167Z,21.14
2018-07-27T05:23:40.563Z,21.19
2018-07-27T05:26:09.685Z,21.31
2018-07-27T05:28:39.074Z,21.41
2018-07-27T05:31:08.229Z,21.44
2018-07-27T05:33:37.613Z,21.62
2018-07-27T05:36:07.221Z,21.67
2018-07-27T05:38:36.575Z,21.92
2018-07-27T05:41:05.826Z,22.00
2018-07-27T05:43:35.232Z,22.09
2018-07-27T05:46:04.676Z,22.29
2018-07-27T05:48:34.110Z,22.31
2018-07-27T05:51:03.516Z,22.40
2018-07-27T05:53:32.874Z,22.41
2018-07-27T05:56:02.217Z,22.46
2018-07-27T05:58:31.612Z,22.42
2018-07-27T06:01:00.726Z,22.53
2018-07-27T06:03:30.078Z,22.61
2018-07-27T06:05:59.398Z,22.65
2018-07-27T06:08:28.757Z,22.72
2018-07-27T06:10:58.186Z,22.85
2018-07-27T06:13:27.579Z,22.89
2018-07-27T06:15:56.982Z,22.86
2018-07-27T06:18:26.344Z,22.87
2018-07-27T06:20:55.798Z,22.89
2018-07-27T06:23:25.199Z,23.08
2018-07-27T06:25:54.679Z,23.18
2018-07-27T06:28:24.119Z,23.24
2018-07-27T06:30:53.474Z,23.31
2018-07-27T06:33:22.821Z,23.30
2018-07-27T06:35:52.185Z,23.31
2018-07-27T06:38:21.556Z,23.47
2018-07-27T06:40:50.910Z,23.44
2018-07-27T06:43:20.895Z,23.50
2018-07-27T06:45:50.270Z,23.63
2018-07-27T06:48:20.517Z,23.55
2018-07-27T06:50:51.350Z,23.62
2018-07-27T06:53:20.783Z,23.65
2018-07-27T06:55:50.146Z,23.71
2018-07-27T06:58:19.549Z,23.82
2018-07-27T07:00:48.969Z,23.83
2018-07-27T07:03:18.091Z,23.92
2018-07-27T07:05:47.489Z,24.20
2018-07-27T07:08:16.878Z,24.23
2018-07-27T07:10:46.244Z,24.27
2018-07-27T07:13:15.682Z,24.32
2018-07-27T07:15:45.058Z,24.46
2018-07-27T07:18:14.433Z,24.54
2018-07-27T07:20:43.859Z,24.61
2018-07-27T07:23:13.233Z,24.80
2018-07-27T07:25:42.761Z,24.79
2018-07-27T07:28:12.098Z,24.97
2018-07-27T07:30:41.444Z,24.91
2018-07-27T07:33:10.885Z,24.97
2018-07-27T07:35:40.543Z,25.02
2018-07-27T07:38:09.939Z,24.99
2018-07-27T07:40:39.296Z,25.12
2018-07-27T07:43:08.658Z,25.14
2018-07-27T07:45:38.086Z,25.21
2018-07-27T07:48:07.494Z,25.36
2018-07-27T07:50:36.906Z,25.52
2018-07-27T07:53:06.595Z,25.65
2018-07-27T07:55:35.952Z,25.53
2018-07-27T07:58:05.342Z,25.45
2018-07-27T08:00:35.257Z,25.55
2018-07-27T08:03:04.777Z,25.54
2018-07-27T08:05:34.182Z,25.70
2018-07-27T08:08:03.270Z,25.89
2018-07-27T08:10:32.705Z,25.87
2018-07-27T08:13:02.050Z,25.86
2018-07-27T08:15:31.434Z,25.91
2018-07-27T08:18:00.829Z,25.93
2018-07-27T08:20:30.251Z,26.20
2018-07-27T08:22:59.655Z,26.10
2018-07-27T08:25:48.426Z,26.36
2018-07-27T08:28:34.823Z,26.26
2018-07-27T08:31:04.253Z,26.36
2018-07-27T08:33:33.778Z,26.40
2018-07-27T08:36:03.241Z,26.33
2018-07-27T08:38:32.647Z,26.34
2018-07-27T08:41:02.138Z,26.30
2018-07-27T08:43:31.534Z,26.33
2018-07-27T08:46:00.999Z,26.43
2018-07-27T08:48:30.501Z,26.36
2018-07-27T08:51:00.911Z,26.55
2018-07-27T08:53:30.254Z,26.70
2018-07-27T08:55:59.698Z,26.73
2018-07-27T08:58:28.805Z,26.81
2018-07-27T09:00:58.259Z,26.83
2018-07-27T09:03:27.698Z,27.04
2018-07-27T09:05:57.124Z,27.04
2018-07-27T09:08:26.530Z,26.82
2018-07-27T09:10:55.985Z,27.08
2018-07-27T09:13:25.797Z,27.25
2018-07-27T09:15:55.573Z,27.18
2018-07-27T09:18:25.205Z,27.23
2018-07-27T09:20:54.776Z,27.21
2018-07-27T09:23:24.441Z,27.34
2018-07-27T09:25:53.905Z,27.66
2018-07-27T09:28:23.222Z,27.70
2018-07-27T09:30:52.807Z,27.84
2018-07-27T09:33:22.365Z,27.90
2018-07-27T09:35:51.986Z,28.10
2018-07-27T09:38:21.402Z,28.09
2018-07-27T09:40:50.819Z,28.01
2018-07-27T09:43:20.578Z,28.04
2018-07-27T09:45:50.169Z,28.13
2018-07-27T09:48:19.632Z,28.29
2018-07-27T09:50:49.073Z,28.43
2018-07-27T09:53:18.472Z,28.74
2018-07-27T09:55:48.452Z,28.73
2018-07-27T09:58:17.897Z,28.73
2018-07-27T10:00:52.564Z,28.61
2018-07-27T10:03:22.128Z,28.78
2018-07-27T10:05:51.523Z,28.82
2018-07-27T10:08:20.922Z,29.08
2018-07-27T10:10:50.306Z,29.24
2018-07-27T10:13:20.381Z,29.35
2018-07-27T10:15:49.725Z,29.31
2018-07-27T10:18:19.838Z,28.97
2018-07-27T10:20:49.478Z,28.83
2018-07-27T10:23:18.809Z,28.81
2018-07-27T10:25:48.221Z,29.03
2018-07-27T10:28:18.015Z,28.87
2018-07-27T10:30:47.753Z,29.04
2018-07-27T10:33:20.760Z,29.19
2018-07-27T10:35:50.243Z,29.20
2018-07-27T10:38:20.122Z,29.40
2018-07-27T10:40:49.530Z,29.41
2018-07-27T10:43:19.418Z,29.58
2018-07-27T10:45:48.788Z,29.85
2018-07-27T10:48:18.081Z,29.89
2018-07-27T10:50:48.017Z,29.92
2018-07-27T10:53:17.433Z,29.84
2018-07-27T10:55:46.857Z,29.70
2018-07-27T10:58:16.899Z,29.64
2018-07-27T11:00:46.302Z,29.64
2018-07-27T11:03:17.067Z,29.72
2018-07-27T11:05:46.413Z,29.98
2018-07-27T11:08:15.960Z,30.21
2018-07-27T11:10:45.325Z,30.26
2018-07-27T11:13:14.763Z,30.36
2018-07-27T11:15:44.153Z,30.23
2018-07-27T11:18:13.545Z,30.01
2018-07-27T11:20:42.878Z,30.23
2018-07-27T11:23:12.474Z,30.27
2018-07-27T11:25:41.940Z,30.50
2018-07-27T11:28:11.246Z,30.62
2018-07-27T11:30:40.665Z,30.78
2018-07-27T11:33:10.086Z,30.92
2018-07-27T11:35:39.522Z,31.06
2018-07-27T11:38:08.981Z,31.16
2018-07-27T11:40:38.415Z,30.90
2018-07-27T11:43:07.905Z,30.97
2018-07-27T11:45:37.281Z,31.03
2018-07-27T11:48:06.712Z,31.21
2018-07-27T11:50:36.126Z,31.23
2018-07-27T11:53:05.550Z,31.48
2018-07-27T11:55:34.889Z,31.51
2018-07-27T11:58:04.357Z,31.65
2018-07-27T12:00:33.750Z,31.73
2018-07-27T12:03:03.414Z,31.68
2018-07-27T12:05:32.817Z,31.79
2018-07-27T12:08:02.186Z,31.73
2018-07-27T12:10:31.577Z,31.83
2018-07-27T12:13:01.049Z,32.03
2018-07-27T12:15:30.197Z,32.15
2018-07-27T12:17:59.607Z,32.31
2018-07-27T12:20:29.170Z,32.65
2018-07-27T12:22:58.602Z,32.78
2018-07-27T12:25:28.081Z,32.71
2018-07-27T12:27:58.166Z,32.90
2018-07-27T12:30:27.555Z,33.20
2018-07-27T12:32:57.945Z,33.99
2018-07-27T12:35:27.425Z,35.14
2018-07-27T12:37:57.082Z,34.43
2018-07-27T12:40:27.999Z,35.02
2018-07-27T12:42:57.714Z,36.40
2018-07-27T12:45:28.587Z,35.74
2018-07-27T12:47:58.178Z,36.35
2018-07-27T12:50:27.546Z,35.68
2018-07-27T12:52:57.937Z,35.86
2018-07-27T12:55:27.718Z,34.24
2018-07-27T12:57:57.145Z,34.93
2018-07-27T13:00:27.076Z,36.18
2018-07-27T13:02:56.822Z,35.67
2018-07-27T13:05:26.182Z,34.71
2018-07-27T13:07:55.644Z,33.84
2018-07-27T13:10:25.542Z,34.14
2018-07-27T13:12:55.595Z,34.94
2018-07-27T13:15:26.118Z,35.99
2018-07-27T13:17:56.038Z,37.69
2018-07-27T13:20:32.865Z,37.17
2018-07-27T13:23:02.323Z,37.50
2018-07-27T13:25:31.749Z,38.06
2018-07-27T13:28:03.190Z,37.68
2018-07-27T13:30:32.576Z,37.63
2018-07-27T13:33:02.811Z,36.32
2018-07-27T13:38:02.208Z,37.11
2018-07-27T13:40:32.159Z,38.08
2018-07-27T13:43:03.053Z,37.94
2018-07-27T13:45:32.690Z,38.47
2018-07-27T13:48:02.553Z,37.69
2018-07-27T13:50:32.010Z,37.45
2018-07-27T13:53:02.741Z,37.38
2018-07-27T13:55:32.474Z,36.72
2018-07-27T13:58:02.876Z,37.37
2018-07-27T14:00:32.391Z,36.30
2018-07-27T14:03:01.910Z,37.62
2018-07-27T14:05:31.969Z,37.00
2018-07-27T14:08:01.835Z,37.53
2018-07-27T14:10:31.481Z,37.90
2018-07-27T14:13:01.974Z,37.55
2018-07-27T14:15:31.797Z,38.06
2018-07-27T14:18:01.010Z,37.74
2018-07-27T14:20:31.219Z,36.85
2018-07-27T14:23:00.394Z,37.33
2018-07-27T14:25:30.318Z,37.62
2018-07-27T14:27:59.686Z,37.11
2018-07-27T14:30:29.062Z,36.74
2018-07-27T14:32:58.419Z,36.92
2018-07-27T14:35:27.857Z,36.80
2018-07-27T14:37:57.792Z,36.81
2018-07-27T14:40:27.237Z,36.92
2018-07-27T14:42:56.658Z,36.85
2018-07-27T14:45:26.078Z,37.12
2018-07-27T14:47:55.570Z,36.43
2018-07-27T14:50:24.973Z,37.18
2018-07-27T14:52:54.376Z,36.52
2018-07-27T14:55:23.761Z,36.40
2018-07-27T14:57:53.153Z,36.45
2018-07-27T15:00:22.582Z,36.30
2018-07-27T15:02:52.070Z,36.51
2018-07-27T15:05:21.505Z,36.38
2018-07-27T15:07:50.934Z,36.87
2018-07-27T15:10:20.380Z,35.82
2018-07-27T15:12:49.817Z,36.61
2018-07-27T15:15:19.207Z,36.21
2018-07-27T15:17:48.879Z,35.94
2018-07-27T15:20:18.270Z,35.93
2018-07-27T15:22:47.722Z,35.49
2018-07-27T15:25:17.167Z,35.71
2018-07-27T15:27:47.589Z,35.79
2018-07-27T15:30:17.347Z,36.16
2018-07-27T15:32:46.830Z,35.87
2018-07-27T15:35:16.278Z,35.38
2018-07-27T15:37:45.795Z,35.10
2018-07-27T15:40:15.401Z,35.22
2018-07-27T15:42:44.846Z,35.57
2018-07-27T15:45:14.277Z,35.53
2018-07-27T15:47:43.702Z,35.50
2018-07-27T15:50:13.138Z,35.61
2018-07-27T15:52:42.509Z,35.48
2018-07-27T15:55:11.902Z,35.23
2018-07-27T15:57:41.465Z,35.58
2018-07-27T16:00:11.254Z,35.40
2018-07-27T16:02:40.659Z,35.31
2018-07-27T16:05:10.037Z,35.60
2018-07-27T16:07:39.446Z,35.42
2018-07-27T16:10:09.098Z,35.47
2018-07-27T16:12:38.514Z,35.01
2018-07-27T16:15:08.130Z,34.02
2018-07-27T16:17:37.563Z,34.63
2018-07-27T16:20:06.818Z,34.63
2018-07-27T16:22:37.793Z,34.39
2018-07-27T16:25:07.434Z,34.24
2018-07-27T16:27:37.061Z,34.29
2018-07-27T16:30:07.214Z,33.76
2018-07-27T16:32:36.881Z,33.84
2018-07-27T16:35:06.394Z,34.42
2018-07-27T16:37:35.897Z,34.11
2018-07-27T16:40:05.897Z,33.70
2018-07-27T16:42:35.335Z,33.85
2018-07-27T16:45:04.853Z,32.96
2018-07-27T16:47:34.230Z,32.95
2018-07-27T16:50:03.714Z,32.92
2018-07-27T16:52:33.150Z,32.79
2018-07-27T16:55:02.511Z,32.68
2018-07-27T16:57:31.871Z,33.13
2018-07-27T17:00:01.345Z,33.09
2018-07-27T17:02:30.722Z,32.78
2018-07-27T17:05:00.088Z,33.21
2018-07-27T17:07:29.461Z,33.03
2018-07-27T17:09:59.182Z,32.56
2018-07-27T17:12:28.669Z,32.11
2018-07-27T17:14:58.066Z,32.67
2018-07-27T17:17:27.431Z,32.20
2018-07-27T17:19:56.934Z,31.83
2018-07-27T17:22:26.237Z,31.38
2018-07-27T17:24:55.813Z,30.78
2018-07-27T17:27:24.992Z,30.49
2018-07-27T17:29:54.343Z,30.80
2018-07-27T17:32:23.735Z,30.37
2018-07-27T17:34:53.141Z,30.28
2018-07-27T17:37:22.581Z,29.72
2018-07-27T17:39:51.717Z,29.59
2018-07-27T17:42:21.077Z,29.68
2018-07-27T17:44:50.216Z,29.47
2018-07-27T17:47:19.593Z,29.11
2018-07-27T17:49:49.137Z,29.17
2018-07-27T17:52:18.521Z,29.09
2018-07-27T17:54:48.088Z,28.87
2018-07-27T17:57:17.437Z,28.80
2018-07-27T17:59:47.018Z,28.80
2018-07-27T18:02:16.558Z,28.80
2018-07-27T18:04:45.954Z,28.62
2018-07-27T18:07:15.587Z,28.56
2018-07-27T18:09:44.849Z,28.44
2018-07-27T18:12:14.260Z,28.35
2018-07-27T18:14:43.655Z,28.41
2018-07-27T18:17:13.068Z,28.28
2018-07-27T18:19:42.394Z,28.25
2018-07-27T18:22:11.917Z,28.07
2018-07-27T18:24:41.493Z,28.02
2018-07-27T18:27:10.960Z,28.10
2018-07-27T18:29:40.717Z,27.82
2018-07-27T18:32:10.174Z,27.91
2018-07-27T18:34:39.578Z,27.77
2018-07-27T18:37:08.974Z,27.52
2018-07-27T18:39:38.448Z,27.44
2018-07-27T18:42:08.118Z,27.48
2018-07-27T18:44:37.927Z,27.36
2018-07-27T18:47:07.369Z,27.19
2018-07-27T18:49:36.875Z,27.16
2018-07-27T18:52:06.334Z,27.17
2018-07-27T18:54:35.780Z,27.15
2018-07-27T18:57:05.610Z,27.04
2018-07-27T18:59:34.951Z,27.00
2018-07-27T19:02:04.520Z,26.86
2018-07-27T19:04:33.602Z,26.87
2018-07-27T19:07:02.996Z,26.80
2018-07-27T19:09:32.403Z,26.78
2018-07-27T19:12:01.754Z,26.69
2018-07-27T19:14:31.166Z,26.58
2018-07-27T19:17:00.585Z,26.64
2018-07-27T19:19:30.034Z,26.61
2018-07-27T19:21:59.546Z,26.47
2018-07-27T19:24:29.034Z,26.34
2018-07-27T19:26:58.548Z,26.28
2018-07-27T19:29:27.921Z,26.20
2018-07-27T19:31:57.453Z,26.20
2018-07-27T19:34:26.926Z,26.18
2018-07-27T19:36:56.326Z,26.12
2018-07-27T19:39:25.677Z,26.02
2018-07-27T19:41:54.844Z,25.85
2018-07-27T19:44:24.228Z,25.95
2018-07-27T19:46:53.789Z,25.80
2018-07-27T19:49:23.143Z,25.85
2018-07-27T19:51:52.643Z,25.83
2018-07-27T19:54:22.199Z,25.76
2018-07-27T19:56:51.566Z,25.79
2018-07-27T19:59:20.982Z,25.74
2018-07-27T20:01:50.351Z,25.76
2018-07-27T20:04:19.766Z,25.81
2018-07-27T20:06:49.177Z,25.64
2018-07-27T20:09:18.558Z,25.65
2018-07-27T20:11:47.980Z,25.60
2018-07-27T20:14:17.369Z,25.60
2018-07-27T20:16:46.732Z,25.59
2018-07-27T20:19:16.101Z,25.59
2018-07-27T20:21:45.606Z,25.60
2018-07-27T20:24:14.994Z,25.58
2018-07-27T20:26:44.395Z,25.52
2018-07-27T20:29:13.856Z,25.54
2018-07-27T20:31:43.259Z,25.48
2018-07-27T20:34:12.634Z,25.52
2018-07-27T20:36:42.095Z,25.44
2018-07-27T20:39:13.321Z,25.50
2018-07-27T20:41:43.405Z,25.44
2018-07-27T20:44:13.186Z,25.40
2018-07-27T20:46:42.561Z,25.34
2018-07-27T20:49:11.731Z,25.32
2018-07-27T20:51:41.066Z,25.26
2018-07-27T20:54:10.822Z,25.20
2018-07-27T20:56:40.878Z,25.19
2018-07-27T20:59:10.337Z,25.23
2018-07-27T21:01:39.794Z,25.16
2018-07-27T21:04:09.929Z,25.15
2018-07-27T21:06:39.293Z,25.10
2018-07-27T21:09:10.382Z,25.11
2018-07-27T21:11:40.175Z,24.98
2018-07-27T21:14:09.841Z,24.99
2018-07-27T21:16:39.362Z,24.88
2018-07-27T21:19:08.894Z,24.88
2018-07-27T21:21:38.409Z,24.83
2018-07-27T21:24:09.125Z,24.72
2018-07-27T21:26:38.627Z,24.75
2018-07-27T21:29:08.154Z,24.73
2018-07-27T21:31:37.659Z,24.61
2018-07-27T21:34:07.029Z,24.63
2018-07-27T21:36:36.467Z,24.68
2018-07-27T21:39:09.267Z,24.66
2018-07-27T21:41:38.691Z,24.56
2018-07-27T21:44:08.121Z,24.53
2018-07-27T21:46:37.549Z,24.50
2018-07-27T21:49:07.159Z,24.37
2018-07-27T21:51:37.349Z,24.43
2018-07-27T21:54:06.823Z,24.42
2018-07-27T21:56:36.199Z,24.37
2018-07-27T21:59:05.781Z,24.28
2018-07-27T22:01:35.321Z,24.24
2018-07-27T22:04:04.827Z,24.16
2018-07-27T22:06:34.251Z,24.16
2018-07-27T22:09:04.272Z,24.17
2018-07-27T22:11:33.743Z,23.99
2018-07-27T22:14:03.354Z,24.04
2018-07-27T22:16:32.886Z,24.06
2018-07-27T22:19:02.263Z,23.92
2018-07-27T22:21:32.095Z,23.89
2018-07-27T22:24:01.694Z,23.85
2018-07-27T22:26:31.134Z,23.82
2018-07-27T22:29:00.729Z,23.84
2018-07-27T22:31:30.152Z,23.86
2018-07-27T22:33:59.540Z,23.78
2018-07-27T22:36:28.996Z,23.72
2018-07-27T22:38:58.736Z,23.69
2018-07-27T22:43:56.617Z,23.56
2018-07-27T22:46:26.125Z,23.53
2018-07-27T22:48:55.616Z,23.46
2018-07-27T22:51:25.555Z,23.45
2018-07-27T22:53:54.927Z,23.48
2018-07-27T22:56:24.347Z,23.44
2018-07-27T22:58:53.814Z,23.42
2018-07-27T23:01:23.194Z,23.32
2018-07-27T23:03:52.627Z,23.28
2018-07-27T23:06:21.988Z,23.26
2018-07-27T23:08:51.391Z,23.21
2018-07-27T23:11:21.410Z,23.23
2018-07-27T23:13:50.991Z,23.12
2018-07-27T23:16:20.372Z,23.14
2018-07-27T23:18:50.130Z,23.09
2018-07-27T23:21:19.467Z,23.09
2018-07-27T23:23:48.871Z,23.16
2018-07-27T23:26:18.323Z,23.05
2018-07-27T23:28:47.713Z,23.01
2018-07-27T23:31:17.093Z,23.03
2018-07-27T23:33:46.489Z,22.91
2018-07-27T23:36:16.031Z,22.91
2018-07-27T23:38:45.705Z,22.87
2018-07-27T23:41:15.121Z,22.86
2018-07-27T23:43:45.481Z,22.82
2018-07-27T23:46:14.870Z,22.72
2018-07-27T23:48:44.385Z,22.80
2018-07-27T23:51:13.895Z,22.76
2018-07-27T23:53:43.302Z,22.65
2018-07-27T23:56:12.622Z,22.68
2018-07-27T23:58:42.030Z,22.57
